• Join FlightAware (Why Join?)
  • Login
  • US Flag 
09:21AM EST


 

Airport Tracker/Info


-or-


 

Live Flight TrackerFlight Track Log ✈ AFL1183 ✈ 22-Jul-2014 ✈ URWW / VOG - UUEE / SVO

Flight Track Log - Related Links

Times and Time Zones

All times are in EDT time to prevent confusion due to time zone crossing. See the AFL1183 flight status page for this flight to view local times or setup timezone preferences in your user account.

Time Position Orientation Groundspeed Altitude Reporting Facility
EDT Latitude Longitude Course Direction KTS MPH feet Rate Location/Type
11:39AM 53.4577 38.2163 336° Northwest 420 483 34,000  Level FlightAware ADS-B (UUWV / MOW)
11:40AM 53.5132 38.1744 336° Northwest 420 483 34,000  Level FlightAware ADS-B (UUWV / MOW)
11:41AM 53.5930 38.1142 336° Northwest 422 486 34,000  Level FlightAware ADS-B (UUWV / MOW)
11:41AM 53.6643 38.0602 336° Northwest 423 487 34,000  Level FlightAware ADS-B (UUWV / MOW)
11:42AM 53.7217 38.0163 336° Northwest 422 486 34,000  Level FlightAware ADS-B (UUWV / MOW)
11:42AM 53.7721 37.9779 336° Northwest 422 486 34,000  Level FlightAware ADS-B (UUWV / MOW)
11:43AM 53.8203 37.9409 336° Northwest 421 484 34,000  Level FlightAware ADS-B (UUWV / MOW)
11:43AM 53.8719 37.9014 336° Northwest 421 484 34,000  Level FlightAware ADS-B (UUWV / MOW)
11:44AM 53.9214 37.8632 335° Northwest 421 484 34,000  Level FlightAware ADS-B (UUWV / MOW)
11:44AM 53.9860 37.8132 335° Northwest 421 484 34,000  Level FlightAware ADS-B (UUWV / MOW)
11:45AM 54.0609 37.7555 336° Northwest 421 484 34,000  Level FlightAware ADS-B (UUWV / MOW)
11:46AM 54.1118 37.7161 335° Northwest 420 483 34,000 -1,020 Level FlightAware ADS-B (UUWV / MOW)
11:48AM 54.3322 37.5429 335° Northwest 412 474 31,400 -1,440 Descending FlightAware ADS-B (UUWV / MOW)
11:48AM 54.4018 37.4879 335° Northwest 418 481 30,000 -960 Descending FlightAware ADS-B (UUWV / MOW)
11:49AM 54.4740 37.4309 335° Northwest 421 484 30,000  Level FlightAware ADS-B (UUWV / MOW)
11:50AM 54.5634 37.3651 341° North 411 473 30,000 -180 Level FlightAware ADS-B (UUWV / MOW)
11:50AM 54.6220 37.3386 349° North 395 455 29,800 -780 Descending FlightAware ADS-B (UUWV / MOW)
11:51AM 54.6591 37.3295 356° North 380 437 29,200 -1,500 Descending FlightAware ADS-B (UUWV / MOW)
11:51AM 54.7006 37.3267 North 376 433 28,700 -2,460 Descending FlightAware ADS-B (UUWV / MOW)
11:52AM 54.7785 37.3334 North 367 422 26,800 -2,880 Descending FlightAware ADS-B (UUWV / MOW)
11:53AM 54.8502 37.3394 North 357 411 24,500 -3,120 Descending FlightAware ADS-B (UUWV / MOW)
11:53AM 54.9153 37.3439 North 350 403 22,500 -2,160 Descending FlightAware ADS-B (UUWV / MOW)
11:54AM 54.9754 37.3482 North 343 395 21,700 -1,560 Descending FlightAware ADS-B (UUWV / MOW)
11:55AM 55.0455 37.3527 North 336 387 20,400 -1,800 Descending FlightAware ADS-B (UUWV / MOW)
11:55AM 55.1003 37.3563 North 331 381 19,200 -1,800 Descending FlightAware ADS-B (UUWV / MOW)
11:56AM 55.1807 37.3618 North 323 372 17,800 -1,980 Descending FlightAware ADS-B (UUWV / MOW)
11:57AM 55.2238 37.3646 North 318 366 16,700 -2,340 Descending FlightAware ADS-B (UUWV / MOW)
11:57AM 55.2352 37.3649 360° North 314 361 16,300 -2,100 Descending FlightAware ADS-B (UUWV / MOW)
11:57AM 55.2888 37.3630 359° North 305 351 15,200 -1,440 Descending FlightAware ADS-B (UUWV / MOW)
11:58AM 55.3296 37.3614 359° North 289 333 14,800 -1,020 Descending FlightAware ADS-B (UUWV / MOW)
11:58AM 55.3684 37.3603 359° North 284 327 14,200 -1,380 Descending FlightAware ADS-B (UUWV / MOW)
11:59AM 55.4217 37.3592 359° North 280 322 13,100 -1,380 Descending FlightAware ADS-B (UUWV / MOW)
12:00PM 55.4665 37.3581 359° North 275 316 12,500 -1,320 Descending FlightAware ADS-B (UUWV / MOW)
12:00PM 55.5231 37.3565 359° North 271 312 11,500 -1,320 Descending FlightAware ADS-B (UUWV / MOW)
12:01PM 55.5984 37.3551 359° North 266 306 10,200 -1,260 Descending FlightAware ADS-B (UUWV / MOW)
12:06PM 55.8003 37.3503 359° North 254 292 4,400 -1,200 Descending FlightAware ADS-B (UUWV / MOW)
12:08PM 55.8590 37.0901 47° Northeast 190 219 3,000 -600 Descending FlightAware ADS-B (UUWV / MOW)
12:11PM 55.9496 37.2527 75° East 150 173 1,800 -420 Descending FlightAware ADS-B (UUWV / MOW)
12:11PM 55.9547 37.2855 75° East 144 166 1,600 -780 Descending FlightAware ADS-B (UUWV / MOW)
12:11PM 55.9591 37.3155 75° East 132 152 1,300 -720 Descending FlightAware ADS-B (UUWV / MOW)
12:12PM 55.9621 37.3351 75° East 129 148 1,100 -660 Descending FlightAware ADS-B (UUWV / MOW)
12:12PM 55.9648 37.3533 75° East 132 152 800 -660 Descending FlightAware ADS-B (UUWV / MOW)
12:15PM 55.9726 37.4146 77° East  Level Estimated
12:16PM 55.9726 37.4146 North  Level Estimated
12:17PM 55.9726 37.4146 North  Level Estimated
12:18PM 55.9726 37.4146 North  Level Estimated
12:19PM 55.9726 37.4146 North  Level Estimated
12:20PM 55.9726 37.4146 North  Level Estimated
12:21PM 55.9726 37.4146 North  Level Estimated
12:22PM 55.9726 37.4146 North  Level Estimated
12:23PM 55.9726 37.4146 North  Level Estimated
12:24PM 55.9726 37.4146 North  Level Estimated
12:25PM 55.9726 37.4146 North  Level Estimated
12:26PM 55.9726 37.4146 North  Level Estimated
12:27PM 55.9726 37.4146 North  Level Estimated
12:28PM 55.9726 37.4146 North  Level Estimated
12:29PM 55.9726 37.4146 North  Level Estimated